sensor_id;sensor_type;location;lat;lon;timestamp;pressure;altitude;pressure_sealevel;temperature;humidity
70458;BME280;57919;56.194;95.716;2023-11-19T00:07:31;96791.06;;;6.25;74.30
70458;BME280;57919;56.194;95.716;2023-11-19T00:17:33;96717.94;;;5.90;76.19
70458;BME280;57919;56.194;95.716;2023-11-19T00:27:35;96691.75;;;6.17;77.67
70458;BME280;57919;56.194;95.716;2023-11-19T00:37:39;96694.06;;;6.44;77.27
70458;BME280;57919;56.194;95.716;2023-11-19T00:47:41;96691.91;;;6.23;78.13
70458;BME280;57919;56.194;95.716;2023-11-19T00:57:44;96658.97;;;6.45;77.06
70458;BME280;57919;56.194;95.716;2023-11-19T01:07:46;96635.13;;;6.90;76.19
70458;BME280;57919;56.194;95.716;2023-11-19T01:17:48;96624.06;;;7.16;74.56
70458;BME280;57919;56.194;95.716;2023-11-19T01:27:51;96599.16;;;7.22;74.09
70458;BME280;57919;56.194;95.716;2023-11-19T01:37:53;96583.44;;;7.10;73.80
70458;BME280;57919;56.194;95.716;2023-11-19T01:47:55;96562.81;;;7.03;73.59
70458;BME280;57919;56.194;95.716;2023-11-19T01:58:00;96554.50;;;7.12;73.27
70458;BME280;57919;56.194;95.716;2023-11-19T02:08:03;96544.84;;;7.26;73.61
70458;BME280;57919;56.194;95.716;2023-11-19T02:28:21;96506.03;;;7.43;72.09
70458;BME280;57919;56.194;95.716;2023-11-19T02:38:23;96479.97;;;7.59;71.72
70458;BME280;57919;56.194;95.716;2023-11-19T02:48:26;96495.78;;;7.76;72.25
70458;BME280;57919;56.194;95.716;2023-11-19T02:58:28;96464.22;;;7.85;71.60
70458;BME280;57919;56.194;95.716;2023-11-19T03:08:30;96477.88;;;8.85;69.68
70458;BME280;57919;56.194;95.716;2023-11-19T03:18:32;96476.66;;;8.88;69.59
70458;BME280;57919;56.194;95.716;2023-11-19T03:28:34;96492.97;;;8.44;69.86
70458;BME280;57919;56.194;95.716;2023-11-19T03:38:36;96487.31;;;8.24;70.59
70458;BME280;57919;56.194;95.716;2023-11-19T03:48:38;96510.81;;;8.15;70.85
70458;BME280;57919;56.194;95.716;2023-11-19T03:58:45;96507.66;;;8.12;71.23
70458;BME280;57919;56.194;95.716;2023-11-19T04:08:47;96511.91;;;8.50;70.92
70458;BME280;57919;56.194;95.716;2023-11-19T04:18:49;96459.84;;;8.64;70.40
70458;BME280;57919;56.194;95.716;2023-11-19T04:28:52;96451.56;;;8.87;70.13
70458;BME280;57919;56.194;95.716;2023-11-19T04:38:55;96421.31;;;9.69;67.16
70458;BME280;57919;56.194;95.716;2023-11-19T04:48:57;96421.09;;;10.59;63.26
70458;BME280;57919;56.194;95.716;2023-11-19T04:58:59;96413.69;;;11.27;59.74
70458;BME280;57919;56.194;95.716;2023-11-19T05:09:01;96389.00;;;12.46;54.18
70458;BME280;57919;56.194;95.716;2023-11-19T05:19:06;96369.72;;;13.24;52.80
70458;BME280;57919;56.194;95.716;2023-11-19T05:29:08;96364.63;;;12.78;50.43
70458;BME280;57919;56.194;95.716;2023-11-19T05:39:10;96379.78;;;12.54;48.59
70458;BME280;57919;56.194;95.716;2023-11-19T05:49:12;96346.97;;;12.93;48.65
70458;BME280;57919;56.194;95.716;2023-11-19T05:59:15;96357.53;;;13.33;49.14
70458;BME280;57919;56.194;95.716;2023-11-19T06:09:19;96374.50;;;13.29;45.72
70458;BME280;57919;56.194;95.716;2023-11-19T06:19:21;96411.19;;;12.75;47.73
70458;BME280;57919;56.194;95.716;2023-11-19T06:29:23;96397.69;;;12.61;46.80
70458;BME280;57919;56.194;95.716;2023-11-19T06:39:25;96456.63;;;12.35;44.59
70458;BME280;57919;56.194;95.716;2023-11-19T06:49:27;96545.50;;;11.60;50.61
70458;BME280;57919;56.194;95.716;2023-11-19T06:59:29;96613.34;;;10.43;55.67
70458;BME280;57919;56.194;95.716;2023-11-19T07:09:32;96610.72;;;10.00;54.74
70458;BME280;57919;56.194;95.716;2023-11-19T07:19:35;96614.03;;;9.75;54.82
70458;BME280;57919;56.194;95.716;2023-11-19T07:29:38;96604.03;;;9.68;53.38
70458;BME280;57919;56.194;95.716;2023-11-19T07:39:41;96646.81;;;9.50;53.11
70458;BME280;57919;56.194;95.716;2023-11-19T07:49:43;96683.25;;;9.61;52.86
70458;BME280;57919;56.194;95.716;2023-11-19T07:59:46;96694.13;;;9.31;50.38
70458;BME280;57919;56.194;95.716;2023-11-19T08:09:48;96720.03;;;8.82;47.27
70458;BME280;57919;56.194;95.716;2023-11-19T08:19:50;96763.78;;;8.54;47.21
70458;BME280;57919;56.194;95.716;2023-11-19T08:29:56;96802.28;;;8.17;47.02
70458;BME280;57919;56.194;95.716;2023-11-19T08:39:58;96827.69;;;7.92;47.15
70458;BME280;57919;56.194;95.716;2023-11-19T08:50:00;96889.09;;;7.49;47.51
70458;BME280;57919;56.194;95.716;2023-11-19T09:00:03;96955.56;;;7.24;46.82
70458;BME280;57919;56.194;95.716;2023-11-19T09:10:09;97014.88;;;6.98;48.54
70458;BME280;57919;56.194;95.716;2023-11-19T09:20:13;97085.13;;;6.45;50.92
70458;BME280;57919;56.194;95.716;2023-11-19T09:30:18;97100.69;;;6.33;50.57
70458;BME280;57919;56.194;95.716;2023-11-19T09:40:20;97131.06;;;6.34;49.01
70458;BME280;57919;56.194;95.716;2023-11-19T09:50:22;97171.66;;;6.31;48.85
70458;BME280;57919;56.194;95.716;2023-11-19T10:00:24;97207.56;;;6.04;49.18
70458;BME280;57919;56.194;95.716;2023-11-19T10:10:26;97259.63;;;5.93;50.24
70458;BME280;57919;56.194;95.716;2023-11-19T10:20:28;97289.56;;;5.89;49.75
70458;BME280;57919;56.194;95.716;2023-11-19T10:30:30;97322.84;;;5.78;49.93
70458;BME280;57919;56.194;95.716;2023-11-19T10:40:40;97341.13;;;5.65;52.36
70458;BME280;57919;56.194;95.716;2023-11-19T10:50:44;97380.56;;;5.27;53.85
70458;BME280;57919;56.194;95.716;2023-11-19T11:00:55;97389.84;;;4.96;53.95
70458;BME280;57919;56.194;95.716;2023-11-19T11:10:58;97456.28;;;4.92;55.24
70458;BME280;57919;56.194;95.716;2023-11-19T11:41:22;97579.03;;;4.39;57.95
70458;BME280;57919;56.194;95.716;2023-11-19T12:01:58;97652.75;;;4.12;58.30
70458;BME280;57919;56.194;95.716;2023-11-19T12:12:26;97673.69;;;4.07;57.96
70458;BME280;57919;56.194;95.716;2023-11-19T12:22:28;97705.75;;;3.98;57.57
70458;BME280;57919;56.194;95.716;2023-11-19T12:32:44;97762.72;;;4.09;56.17
70458;BME280;57919;56.194;95.716;2023-11-19T12:42:46;97774.66;;;4.05;55.71
70458;BME280;57919;56.194;95.716;2023-11-19T12:52:58;97829.16;;;4.04;53.77
70458;BME280;57919;56.194;95.716;2023-11-19T13:03:00;97870.88;;;3.96;53.55
70458;BME280;57919;56.194;95.716;2023-11-19T13:13:08;97921.78;;;3.73;56.17
70458;BME280;57919;56.194;95.716;2023-11-19T13:23:10;97971.03;;;3.48;57.45
70458;BME280;57919;56.194;95.716;2023-11-19T13:33:13;97993.13;;;3.17;58.97
70458;BME280;57919;56.194;95.716;2023-11-19T13:43:15;98024.41;;;3.04;59.25
70458;BME280;57919;56.194;95.716;2023-11-19T13:53:17;98053.53;;;2.96;57.96
70458;BME280;57919;56.194;95.716;2023-11-19T14:03:19;98109.34;;;2.87;56.84
70458;BME280;57919;56.194;95.716;2023-11-19T14:13:21;98126.63;;;2.47;58.51
70458;BME280;57919;56.194;95.716;2023-11-19T14:23:23;98186.69;;;2.03;60.14
70458;BME280;57919;56.194;95.716;2023-11-19T14:33:27;98220.16;;;1.82;61.72
70458;BME280;57919;56.194;95.716;2023-11-19T14:43:29;98277.97;;;1.81;62.42
70458;BME280;57919;56.194;95.716;2023-11-19T14:53:31;98327.44;;;1.73;60.63
70458;BME280;57919;56.194;95.716;2023-11-19T15:03:33;98348.22;;;1.68;59.45
70458;BME280;57919;56.194;95.716;2023-11-19T15:13:35;98365.09;;;1.54;59.17
70458;BME280;57919;56.194;95.716;2023-11-19T15:23:43;98400.66;;;1.40;58.24
70458;BME280;57919;56.194;95.716;2023-11-19T15:33:45;98426.16;;;1.44;58.67
70458;BME280;57919;56.194;95.716;2023-11-19T15:43:48;98462.41;;;1.47;58.85
70458;BME280;57919;56.194;95.716;2023-11-19T15:53:50;98487.53;;;1.28;56.12
70458;BME280;57919;56.194;95.716;2023-11-19T16:03:52;98507.03;;;1.15;55.95
70458;BME280;57919;56.194;95.716;2023-11-19T16:13:54;98504.06;;;0.91;55.19
70458;BME280;57919;56.194;95.716;2023-11-19T16:23:56;98525.69;;;0.71;56.29
70458;BME280;57919;56.194;95.716;2023-11-19T16:33:58;98564.94;;;0.67;55.31
70458;BME280;57919;56.194;95.716;2023-11-19T16:44:01;98567.59;;;0.67;57.27
70458;BME280;57919;56.194;95.716;2023-11-19T16:54:04;98577.44;;;0.51;56.87
70458;BME280;57919;56.194;95.716;2023-11-19T17:04:07;98626.53;;;0.29;57.52
70458;BME280;57919;56.194;95.716;2023-11-19T17:14:09;98653.47;;;0.23;56.29
70458;BME280;57919;56.194;95.716;2023-11-19T17:24:11;98666.06;;;0.04;56.12
70458;BME280;57919;56.194;95.716;2023-11-19T17:34:14;98690.34;;;-0.02;57.21
70458;BME280;57919;56.194;95.716;2023-11-19T17:44:16;98725.09;;;-0.22;59.60
70458;BME280;57919;56.194;95.716;2023-11-19T17:54:19;98738.56;;;-0.43;61.79
70458;BME280;57919;56.194;95.716;2023-11-19T18:04:25;98780.81;;;-0.73;66.16
70458;BME280;57919;56.194;95.716;2023-11-19T18:14:27;98803.91;;;-0.75;62.56
70458;BME280;57919;56.194;95.716;2023-11-19T18:24:29;98816.47;;;-0.78;62.52
70458;BME280;57919;56.194;95.716;2023-11-19T18:34:32;98844.28;;;-1.04;65.27
70458;BME280;57919;56.194;95.716;2023-11-19T18:44:34;98863.78;;;-1.24;66.65
70458;BME280;57919;56.194;95.716;2023-11-19T18:54:36;98885.16;;;-1.27;67.91
70458;BME280;57919;56.194;95.716;2023-11-19T19:04:38;98891.47;;;-1.29;67.03
70458;BME280;57919;56.194;95.716;2023-11-19T19:14:40;98898.13;;;-1.40;64.76
70458;BME280;57919;56.194;95.716;2023-11-19T19:24:42;98899.88;;;-1.59;62.03
70458;BME280;57919;56.194;95.716;2023-11-19T19:34:44;98925.94;;;-1.69;59.38
70458;BME280;57919;56.194;95.716;2023-11-19T19:44:46;98955.81;;;-1.85;58.31
70458;BME280;57919;56.194;95.716;2023-11-19T19:54:48;98980.38;;;-2.02;57.77
70458;BME280;57919;56.194;95.716;2023-11-19T20:04:50;98997.63;;;-2.14;57.15
70458;BME280;57919;56.194;95.716;2023-11-19T20:14:52;98995.84;;;-2.35;58.22
70458;BME280;57919;56.194;95.716;2023-11-19T20:24:54;99029.63;;;-2.64;60.19
70458;BME280;57919;56.194;95.716;2023-11-19T20:34:57;99054.31;;;-2.86;61.14
70458;BME280;57919;56.194;95.716;2023-11-19T20:45:01;99079.47;;;-3.00;60.47
70458;BME280;57919;56.194;95.716;2023-11-19T20:55:05;99091.56;;;-3.17;61.80
70458;BME280;57919;56.194;95.716;2023-11-19T21:05:08;99117.38;;;-3.50;64.96
70458;BME280;57919;56.194;95.716;2023-11-19T21:15:11;99136.84;;;-3.53;65.45
70458;BME280;57919;56.194;95.716;2023-11-19T21:25:13;99146.78;;;-3.60;64.08
70458;BME280;57919;56.194;95.716;2023-11-19T21:35:15;99169.22;;;-3.73;64.19
70458;BME280;57919;56.194;95.716;2023-11-19T21:45:17;99193.97;;;-3.75;63.05
70458;BME280;57919;56.194;95.716;2023-11-19T21:55:19;99199.34;;;-3.78;62.79
70458;BME280;57919;56.194;95.716;2023-11-19T22:05:21;99211.78;;;-3.82;63.02
70458;BME280;57919;56.194;95.716;2023-11-19T22:15:23;99215.06;;;-4.03;62.89
70458;BME280;57919;56.194;95.716;2023-11-19T22:25:25;99227.81;;;-4.17;62.91
70458;BME280;57919;56.194;95.716;2023-11-19T22:35:29;99268.06;;;-4.40;62.47
70458;BME280;57919;56.194;95.716;2023-11-19T22:45:31;99301.63;;;-4.45;62.49
70458;BME280;57919;56.194;95.716;2023-11-19T22:55:33;99323.94;;;-4.57;61.89
70458;BME280;57919;56.194;95.716;2023-11-19T23:05:35;99341.22;;;-4.79;60.79
70458;BME280;57919;56.194;95.716;2023-11-19T23:15:37;99361.78;;;-4.94;59.72
70458;BME280;57919;56.194;95.716;2023-11-19T23:25:39;99384.03;;;-5.05;59.82
70458;BME280;57919;56.194;95.716;2023-11-19T23:35:41;99405.34;;;-5.14;60.31
70458;BME280;57919;56.194;95.716;2023-11-19T23:45:43;99430.31;;;-5.32;59.75
70458;BME280;57919;56.194;95.716;2023-11-19T23:55:45;99450.81;;;-5.46;59.62
